sensor_id;sensor_type;location;lat;lon;timestamp;temperature;humidity
34201;DHT22;20469;55.638;37.670;2023-04-15T00:01:51;3.90;1.00
34201;DHT22;20469;55.638;37.670;2023-04-15T00:04:18;3.40;1.00
34201;DHT22;20469;55.638;37.670;2023-04-15T00:06:52;2.70;1.00
34201;DHT22;20469;55.638;37.670;2023-04-15T00:09:20;3.20;1.00
34201;DHT22;20469;55.638;37.670;2023-04-15T00:11:49;3.20;1.00
34201;DHT22;20469;55.638;37.670;2023-04-15T00:14:16;3.10;1.00
34201;DHT22;20469;55.638;37.670;2023-04-15T00:16:43;3.10;1.00
34201;DHT22;20469;55.638;37.670;2023-04-15T00:19:11;3.40;1.00
34201;DHT22;20469;55.638;37.670;2023-04-15T00:21:38;2.90;1.00
34201;DHT22;20469;55.638;37.670;2023-04-15T00:24:05;3.00;1.00
34201;DHT22;20469;55.638;37.670;2023-04-15T00:26:32;2.80;1.00
34201;DHT22;20469;55.638;37.670;2023-04-15T00:29:00;3.10;1.00
34201;DHT22;20469;55.638;37.670;2023-04-15T00:31:27;2.90;1.00
34201;DHT22;20469;55.638;37.670;2023-04-15T00:33:54;2.90;1.00
34201;DHT22;20469;55.638;37.670;2023-04-15T00:36:21;2.70;1.00
34201;DHT22;20469;55.638;37.670;2023-04-15T00:38:49;4.00;1.00
34201;DHT22;20469;55.638;37.670;2023-04-15T00:41:17;3.10;1.00
34201;DHT22;20469;55.638;37.670;2023-04-15T00:43:44;3.30;1.00
34201;DHT22;20469;55.638;37.670;2023-04-15T00:46:13;3.10;1.00
34201;DHT22;20469;55.638;37.670;2023-04-15T00:48:42;2.90;1.00
34201;DHT22;20469;55.638;37.670;2023-04-15T00:51:09;2.50;1.00
34201;DHT22;20469;55.638;37.670;2023-04-15T00:53:36;2.50;1.00
34201;DHT22;20469;55.638;37.670;2023-04-15T00:56:04;2.50;1.00
34201;DHT22;20469;55.638;37.670;2023-04-15T00:58:32;2.90;1.00
34201;DHT22;20469;55.638;37.670;2023-04-15T01:00:59;2.60;1.00
34201;DHT22;20469;55.638;37.670;2023-04-15T01:03:26;2.50;1.00
34201;DHT22;20469;55.638;37.670;2023-04-15T01:05:54;2.40;1.00
34201;DHT22;20469;55.638;37.670;2023-04-15T01:08:28;2.30;1.00
34201;DHT22;20469;55.638;37.670;2023-04-15T01:11:00;2.50;1.00
34201;DHT22;20469;55.638;37.670;2023-04-15T01:13:29;2.70;1.00
34201;DHT22;20469;55.638;37.670;2023-04-15T01:15:57;2.70;1.00
34201;DHT22;20469;55.638;37.670;2023-04-15T01:18:24;2.40;1.00
34201;DHT22;20469;55.638;37.670;2023-04-15T01:20:52;2.30;1.00
34201;DHT22;20469;55.638;37.670;2023-04-15T01:23:20;2.30;1.00
34201;DHT22;20469;55.638;37.670;2023-04-15T01:25:49;2.40;1.00
34201;DHT22;20469;55.638;37.670;2023-04-15T01:28:16;2.70;1.00
34201;DHT22;20469;55.638;37.670;2023-04-15T01:30:43;2.80;1.00
34201;DHT22;20469;55.638;37.670;2023-04-15T01:33:10;2.30;1.00
34201;DHT22;20469;55.638;37.670;2023-04-15T01:35:56;2.40;1.00
34201;DHT22;20469;55.638;37.670;2023-04-15T01:38:26;2.30;1.00
34201;DHT22;20469;55.638;37.670;2023-04-15T01:40:53;2.50;1.00
34201;DHT22;20469;55.638;37.670;2023-04-15T01:43:21;2.60;1.00
34201;DHT22;20469;55.638;37.670;2023-04-15T01:45:50;2.50;1.00
34201;DHT22;20469;55.638;37.670;2023-04-15T01:48:18;2.30;1.00
34201;DHT22;20469;55.638;37.670;2023-04-15T01:50:47;2.10;1.00
34201;DHT22;20469;55.638;37.670;2023-04-15T01:53:15;2.40;1.00
34201;DHT22;20469;55.638;37.670;2023-04-15T01:55:43;2.10;1.00
34201;DHT22;20469;55.638;37.670;2023-04-15T01:58:12;1.90;1.00
34201;DHT22;20469;55.638;37.670;2023-04-15T02:00:40;1.80;1.00
34201;DHT22;20469;55.638;37.670;2023-04-15T02:03:11;2.00;1.00
34201;DHT22;20469;55.638;37.670;2023-04-15T02:05:39;1.90;1.00
34201;DHT22;20469;55.638;37.670;2023-04-15T02:08:08;2.20;1.00
34201;DHT22;20469;55.638;37.670;2023-04-15T02:10:37;2.20;1.00
34201;DHT22;20469;55.638;37.670;2023-04-15T02:13:05;2.00;1.00
34201;DHT22;20469;55.638;37.670;2023-04-15T02:15:34;2.10;1.00
34201;DHT22;20469;55.638;37.670;2023-04-15T02:18:03;1.90;1.00
34201;DHT22;20469;55.638;37.670;2023-04-15T02:20:32;1.60;1.00
34201;DHT22;20469;55.638;37.670;2023-04-15T02:23:00;2.00;1.00
34201;DHT22;20469;55.638;37.670;2023-04-15T02:25:28;1.90;1.00
34201;DHT22;20469;55.638;37.670;2023-04-15T02:27:57;1.90;1.00
34201;DHT22;20469;55.638;37.670;2023-04-15T02:30:25;2.20;1.00
34201;DHT22;20469;55.638;37.670;2023-04-15T02:32:54;2.00;1.00
34201;DHT22;20469;55.638;37.670;2023-04-15T02:35:23;2.20;1.00
34201;DHT22;20469;55.638;37.670;2023-04-15T02:37:52;2.00;1.00
34201;DHT22;20469;55.638;37.670;2023-04-15T02:40:21;2.00;1.00
34201;DHT22;20469;55.638;37.670;2023-04-15T02:42:49;1.90;1.00
34201;DHT22;20469;55.638;37.670;2023-04-15T02:45:18;2.00;1.00
34201;DHT22;20469;55.638;37.670;2023-04-15T02:47:50;2.10;1.00
34201;DHT22;20469;55.638;37.670;2023-04-15T02:50:18;1.90;1.00
34201;DHT22;20469;55.638;37.670;2023-04-15T02:52:47;2.30;1.00
34201;DHT22;20469;55.638;37.670;2023-04-15T02:55:15;1.90;1.00
34201;DHT22;20469;55.638;37.670;2023-04-15T02:57:45;2.20;1.00
34201;DHT22;20469;55.638;37.670;2023-04-15T03:00:13;2.20;1.00
34201;DHT22;20469;55.638;37.670;2023-04-15T03:02:42;2.10;1.00
34201;DHT22;20469;55.638;37.670;2023-04-15T03:05:12;2.30;1.00
34201;DHT22;20469;55.638;37.670;2023-04-15T03:07:41;1.60;1.00
34201;DHT22;20469;55.638;37.670;2023-04-15T03:10:09;2.00;1.00
34201;DHT22;20469;55.638;37.670;2023-04-15T03:12:38;2.10;1.00
34201;DHT22;20469;55.638;37.670;2023-04-15T03:15:08;2.90;1.00
34201;DHT22;20469;55.638;37.670;2023-04-15T03:17:36;2.30;1.00
34201;DHT22;20469;55.638;37.670;2023-04-15T03:20:06;1.90;1.00
34201;DHT22;20469;55.638;37.670;2023-04-15T03:22:34;2.60;1.00
34201;DHT22;20469;55.638;37.670;2023-04-15T03:25:03;2.20;1.00
34201;DHT22;20469;55.638;37.670;2023-04-15T03:27:31;2.70;1.00
34201;DHT22;20469;55.638;37.670;2023-04-15T03:29:59;2.00;1.00
34201;DHT22;20469;55.638;37.670;2023-04-15T03:32:28;2.00;1.00
34201;DHT22;20469;55.638;37.670;2023-04-15T03:34:56;2.40;1.00
34201;DHT22;20469;55.638;37.670;2023-04-15T03:37:24;2.90;1.00
34201;DHT22;20469;55.638;37.670;2023-04-15T03:39:53;2.20;1.00
34201;DHT22;20469;55.638;37.670;2023-04-15T03:42:21;1.80;1.00
34201;DHT22;20469;55.638;37.670;2023-04-15T03:44:49;2.40;1.00
34201;DHT22;20469;55.638;37.670;2023-04-15T03:47:18;2.40;1.00
34201;DHT22;20469;55.638;37.670;2023-04-15T03:49:46;2.10;1.00
34201;DHT22;20469;55.638;37.670;2023-04-15T03:52:15;3.00;1.00
34201;DHT22;20469;55.638;37.670;2023-04-15T03:54:43;2.70;1.00
34201;DHT22;20469;55.638;37.670;2023-04-15T03:57:11;2.40;1.00
34201;DHT22;20469;55.638;37.670;2023-04-15T03:59:39;2.30;1.00
34201;DHT22;20469;55.638;37.670;2023-04-15T04:02:08;2.30;1.00
34201;DHT22;20469;55.638;37.670;2023-04-15T04:04:36;2.70;1.00
34201;DHT22;20469;55.638;37.670;2023-04-15T04:07:05;2.50;1.00
34201;DHT22;20469;55.638;37.670;2023-04-15T04:09:33;2.10;1.00
34201;DHT22;20469;55.638;37.670;2023-04-15T04:12:01;2.00;1.00
34201;DHT22;20469;55.638;37.670;2023-04-15T04:14:31;2.20;1.00
34201;DHT22;20469;55.638;37.670;2023-04-15T04:16:59;2.30;1.00
34201;DHT22;20469;55.638;37.670;2023-04-15T04:19:28;3.20;1.00
34201;DHT22;20469;55.638;37.670;2023-04-15T04:21:57;2.60;1.00
34201;DHT22;20469;55.638;37.670;2023-04-15T04:24:25;2.40;1.00
34201;DHT22;20469;55.638;37.670;2023-04-15T04:26:53;2.70;1.00
34201;DHT22;20469;55.638;37.670;2023-04-15T04:29:23;2.40;1.00
34201;DHT22;20469;55.638;37.670;2023-04-15T04:31:51;2.30;1.00
34201;DHT22;20469;55.638;37.670;2023-04-15T04:34:20;2.30;1.00
34201;DHT22;20469;55.638;37.670;2023-04-15T04:36:48;2.70;1.00
34201;DHT22;20469;55.638;37.670;2023-04-15T04:39:16;2.60;1.00
34201;DHT22;20469;55.638;37.670;2023-04-15T04:41:45;2.60;1.00
34201;DHT22;20469;55.638;37.670;2023-04-15T04:44:13;2.70;1.00
34201;DHT22;20469;55.638;37.670;2023-04-15T04:46:41;3.30;1.00
34201;DHT22;20469;55.638;37.670;2023-04-15T04:49:10;3.50;1.00
34201;DHT22;20469;55.638;37.670;2023-04-15T04:51:38;3.20;1.00
34201;DHT22;20469;55.638;37.670;2023-04-15T04:54:06;3.10;1.00
34201;DHT22;20469;55.638;37.670;2023-04-15T04:56:34;3.20;1.00
34201;DHT22;20469;55.638;37.670;2023-04-15T04:59:03;3.90;1.00
34201;DHT22;20469;55.638;37.670;2023-04-15T05:01:31;3.80;1.00
34201;DHT22;20469;55.638;37.670;2023-04-15T05:04:00;3.50;1.00
34201;DHT22;20469;55.638;37.670;2023-04-15T05:06:29;3.60;1.00
34201;DHT22;20469;55.638;37.670;2023-04-15T05:08:58;3.70;1.00
34201;DHT22;20469;55.638;37.670;2023-04-15T05:11:27;3.70;1.00
34201;DHT22;20469;55.638;37.670;2023-04-15T05:13:55;3.20;1.00
34201;DHT22;20469;55.638;37.670;2023-04-15T05:16:25;3.20;1.00
34201;DHT22;20469;55.638;37.670;2023-04-15T05:18:53;3.10;1.00
34201;DHT22;20469;55.638;37.670;2023-04-15T05:21:21;2.90;1.00
34201;DHT22;20469;55.638;37.670;2023-04-15T05:23:50;3.20;1.00
34201;DHT22;20469;55.638;37.670;2023-04-15T05:26:19;3.30;1.00
34201;DHT22;20469;55.638;37.670;2023-04-15T05:28:48;4.00;1.00
34201;DHT22;20469;55.638;37.670;2023-04-15T05:31:17;3.70;1.00
34201;DHT22;20469;55.638;37.670;2023-04-15T05:33:45;3.10;1.00
34201;DHT22;20469;55.638;37.670;2023-04-15T05:36:13;4.00;1.00
34201;DHT22;20469;55.638;37.670;2023-04-15T05:38:42;3.80;1.00
34201;DHT22;20469;55.638;37.670;2023-04-15T05:41:11;3.70;1.00
34201;DHT22;20469;55.638;37.670;2023-04-15T05:43:39;3.40;1.00
34201;DHT22;20469;55.638;37.670;2023-04-15T05:46:07;3.90;1.00
34201;DHT22;20469;55.638;37.670;2023-04-15T05:48:36;3.60;1.00
34201;DHT22;20469;55.638;37.670;2023-04-15T05:51:04;4.20;1.00
34201;DHT22;20469;55.638;37.670;2023-04-15T05:53:32;3.80;1.00
34201;DHT22;20469;55.638;37.670;2023-04-15T05:56:00;4.00;1.00
34201;DHT22;20469;55.638;37.670;2023-04-15T05:58:29;3.70;1.00
34201;DHT22;20469;55.638;37.670;2023-04-15T06:00:58;3.90;1.00
34201;DHT22;20469;55.638;37.670;2023-04-15T06:03:26;3.40;1.00
34201;DHT22;20469;55.638;37.670;2023-04-15T06:05:55;3.70;1.00
34201;DHT22;20469;55.638;37.670;2023-04-15T06:08:23;3.50;1.00
34201;DHT22;20469;55.638;37.670;2023-04-15T06:10:52;3.70;1.00
34201;DHT22;20469;55.638;37.670;2023-04-15T06:13:20;3.30;1.00
34201;DHT22;20469;55.638;37.670;2023-04-15T06:15:48;3.10;1.00
34201;DHT22;20469;55.638;37.670;2023-04-15T06:18:17;3.50;1.00
34201;DHT22;20469;55.638;37.670;2023-04-15T06:20:45;4.20;1.00
34201;DHT22;20469;55.638;37.670;2023-04-15T06:23:13;4.40;1.00
34201;DHT22;20469;55.638;37.670;2023-04-15T06:25:42;4.50;1.00
34201;DHT22;20469;55.638;37.670;2023-04-15T06:28:10;4.40;1.00
34201;DHT22;20469;55.638;37.670;2023-04-15T06:30:39;4.70;1.00
34201;DHT22;20469;55.638;37.670;2023-04-15T06:33:07;4.70;1.00
34201;DHT22;20469;55.638;37.670;2023-04-15T06:35:37;5.00;1.00
34201;DHT22;20469;55.638;37.670;2023-04-15T06:38:06;4.50;1.00
34201;DHT22;20469;55.638;37.670;2023-04-15T06:40:34;4.40;1.00
34201;DHT22;20469;55.638;37.670;2023-04-15T06:43:03;4.20;1.00
34201;DHT22;20469;55.638;37.670;2023-04-15T06:45:31;4.40;1.00
34201;DHT22;20469;55.638;37.670;2023-04-15T06:48:00;4.40;1.00
34201;DHT22;20469;55.638;37.670;2023-04-15T06:50:28;5.60;1.00
34201;DHT22;20469;55.638;37.670;2023-04-15T06:52:57;5.60;1.00
34201;DHT22;20469;55.638;37.670;2023-04-15T06:55:25;5.70;1.00
34201;DHT22;20469;55.638;37.670;2023-04-15T06:57:54;5.10;1.00
34201;DHT22;20469;55.638;37.670;2023-04-15T07:00:22;5.10;1.00
34201;DHT22;20469;55.638;37.670;2023-04-15T07:02:51;5.40;1.00
34201;DHT22;20469;55.638;37.670;2023-04-15T07:05:20;5.60;1.00
34201;DHT22;20469;55.638;37.670;2023-04-15T07:07:48;6.00;1.00
34201;DHT22;20469;55.638;37.670;2023-04-15T07:10:17;6.40;1.00
34201;DHT22;20469;55.638;37.670;2023-04-15T07:12:47;6.00;1.00
34201;DHT22;20469;55.638;37.670;2023-04-15T07:15:15;6.30;1.00
34201;DHT22;20469;55.638;37.670;2023-04-15T07:17:44;5.70;1.00
34201;DHT22;20469;55.638;37.670;2023-04-15T07:20:13;6.10;1.00
34201;DHT22;20469;55.638;37.670;2023-04-15T07:22:41;6.30;1.00
34201;DHT22;20469;55.638;37.670;2023-04-15T07:25:09;6.40;1.00
34201;DHT22;20469;55.638;37.670;2023-04-15T07:27:38;6.80;1.00
34201;DHT22;20469;55.638;37.670;2023-04-15T07:30:08;8.10;1.00
34201;DHT22;20469;55.638;37.670;2023-04-15T07:32:37;9.30;1.00
34201;DHT22;20469;55.638;37.670;2023-04-15T07:35:05;8.60;1.00
34201;DHT22;20469;55.638;37.670;2023-04-15T07:37:34;10.10;1.00
34201;DHT22;20469;55.638;37.670;2023-04-15T07:40:03;7.50;1.00
34201;DHT22;20469;55.638;37.670;2023-04-15T07:42:34;7.30;1.00
34201;DHT22;20469;55.638;37.670;2023-04-15T07:45:02;8.00;1.00
34201;DHT22;20469;55.638;37.670;2023-04-15T07:47:31;8.00;1.00
34201;DHT22;20469;55.638;37.670;2023-04-15T07:49:59;7.50;1.00
34201;DHT22;20469;55.638;37.670;2023-04-15T07:52:29;7.30;1.00
34201;DHT22;20469;55.638;37.670;2023-04-15T07:54:57;8.20;1.00
34201;DHT22;20469;55.638;37.670;2023-04-15T07:57:25;8.70;1.00
34201;DHT22;20469;55.638;37.670;2023-04-15T07:59:54;8.40;1.00
34201;DHT22;20469;55.638;37.670;2023-04-15T08:02:22;9.10;1.00
34201;DHT22;20469;55.638;37.670;2023-04-15T08:04:51;8.20;1.00
34201;DHT22;20469;55.638;37.670;2023-04-15T08:07:21;7.40;1.00
34201;DHT22;20469;55.638;37.670;2023-04-15T08:09:49;8.70;1.00
34201;DHT22;20469;55.638;37.670;2023-04-15T08:12:17;9.80;1.00
34201;DHT22;20469;55.638;37.670;2023-04-15T08:14:46;10.90;1.00
34201;DHT22;20469;55.638;37.670;2023-04-15T08:17:15;11.20;1.00
34201;DHT22;20469;55.638;37.670;2023-04-15T08:19:43;11.00;1.00
34201;DHT22;20469;55.638;37.670;2023-04-15T08:22:11;11.10;1.00
34201;DHT22;20469;55.638;37.670;2023-04-15T08:24:45;10.80;1.00
34201;DHT22;20469;55.638;37.670;2023-04-15T08:27:13;10.80;1.00
34201;DHT22;20469;55.638;37.670;2023-04-15T08:29:42;12.10;1.00
34201;DHT22;20469;55.638;37.670;2023-04-15T08:32:10;11.30;1.00
34201;DHT22;20469;55.638;37.670;2023-04-15T08:34:38;10.60;1.00
34201;DHT22;20469;55.638;37.670;2023-04-15T08:37:07;12.00;1.00
34201;DHT22;20469;55.638;37.670;2023-04-15T08:39:37;10.20;1.00
34201;DHT22;20469;55.638;37.670;2023-04-15T08:42:11;10.00;1.00
34201;DHT22;20469;55.638;37.670;2023-04-15T08:44:42;9.40;1.00
34201;DHT22;20469;55.638;37.670;2023-04-15T08:47:12;9.60;1.00
34201;DHT22;20469;55.638;37.670;2023-04-15T08:49:44;9.70;1.00
34201;DHT22;20469;55.638;37.670;2023-04-15T08:52:15;9.60;1.00
34201;DHT22;20469;55.638;37.670;2023-04-15T08:54:44;10.90;1.00
34201;DHT22;20469;55.638;37.670;2023-04-15T08:57:12;9.60;1.00
34201;DHT22;20469;55.638;37.670;2023-04-15T08:59:42;9.70;1.00
34201;DHT22;20469;55.638;37.670;2023-04-15T09:02:11;9.60;1.00
34201;DHT22;20469;55.638;37.670;2023-04-15T09:04:39;9.20;1.00
34201;DHT22;20469;55.638;37.670;2023-04-15T09:07:08;9.60;1.00
34201;DHT22;20469;55.638;37.670;2023-04-15T09:09:37;9.00;1.00
34201;DHT22;20469;55.638;37.670;2023-04-15T09:12:07;8.80;1.00
34201;DHT22;20469;55.638;37.670;2023-04-15T09:14:38;8.70;1.00
34201;DHT22;20469;55.638;37.670;2023-04-15T09:17:09;8.90;1.00
34201;DHT22;20469;55.638;37.670;2023-04-15T09:19:38;9.70;1.00
34201;DHT22;20469;55.638;37.670;2023-04-15T09:22:31;9.70;1.00
34201;DHT22;20469;55.638;37.670;2023-04-15T09:25:00;9.00;1.00
34201;DHT22;20469;55.638;37.670;2023-04-15T09:27:28;9.10;1.00
34201;DHT22;20469;55.638;37.670;2023-04-15T09:29:57;9.70;1.00
34201;DHT22;20469;55.638;37.670;2023-04-15T09:32:25;9.40;1.00
34201;DHT22;20469;55.638;37.670;2023-04-15T09:34:54;9.30;1.00
34201;DHT22;20469;55.638;37.670;2023-04-15T09:37:34;9.00;1.00
34201;DHT22;20469;55.638;37.670;2023-04-15T09:40:03;9.30;1.00
34201;DHT22;20469;55.638;37.670;2023-04-15T09:42:32;9.60;1.00
34201;DHT22;20469;55.638;37.670;2023-04-15T09:45:12;10.70;1.00
34201;DHT22;20469;55.638;37.670;2023-04-15T09:47:41;10.50;1.00
34201;DHT22;20469;55.638;37.670;2023-04-15T09:50:10;9.60;1.00
34201;DHT22;20469;55.638;37.670;2023-04-15T09:52:42;9.70;1.00
34201;DHT22;20469;55.638;37.670;2023-04-15T09:55:12;9.70;1.00
34201;DHT22;20469;55.638;37.670;2023-04-15T09:57:41;9.70;1.00
34201;DHT22;20469;55.638;37.670;2023-04-15T10:00:11;10.10;1.00
34201;DHT22;20469;55.638;37.670;2023-04-15T10:02:41;9.70;1.00
34201;DHT22;20469;55.638;37.670;2023-04-15T10:05:10;10.10;1.00
34201;DHT22;20469;55.638;37.670;2023-04-15T10:07:41;10.30;1.00
34201;DHT22;20469;55.638;37.670;2023-04-15T10:10:28;10.30;1.00
34201;DHT22;20469;55.638;37.670;2023-04-15T10:12:56;9.70;1.00
34201;DHT22;20469;55.638;37.670;2023-04-15T10:15:25;9.90;1.00
34201;DHT22;20469;55.638;37.670;2023-04-15T10:17:55;9.90;1.00
34201;DHT22;20469;55.638;37.670;2023-04-15T10:20:25;10.10;1.00
34201;DHT22;20469;55.638;37.670;2023-04-15T10:23:14;9.60;1.00
34201;DHT22;20469;55.638;37.670;2023-04-15T10:25:42;10.20;1.00
34201;DHT22;20469;55.638;37.670;2023-04-15T10:28:11;11.00;1.00
34201;DHT22;20469;55.638;37.670;2023-04-15T10:30:40;10.00;1.00
34201;DHT22;20469;55.638;37.670;2023-04-15T10:33:10;10.50;1.00
34201;DHT22;20469;55.638;37.670;2023-04-15T10:35:38;11.30;1.00
34201;DHT22;20469;55.638;37.670;2023-04-15T10:38:33;11.70;1.00
34201;DHT22;20469;55.638;37.670;2023-04-15T10:41:22;11.20;1.00
34201;DHT22;20469;55.638;37.670;2023-04-15T10:46:46;11.90;1.00
34201;DHT22;20469;55.638;37.670;2023-04-15T10:49:24;12.70;1.00
34201;DHT22;20469;55.638;37.670;2023-04-15T10:51:57;12.70;1.00
34201;DHT22;20469;55.638;37.670;2023-04-15T10:54:44;13.40;1.00
34201;DHT22;20469;55.638;37.670;2023-04-15T10:57:22;13.00;1.00
34201;DHT22;20469;55.638;37.670;2023-04-15T11:02:47;12.80;1.00
34201;DHT22;20469;55.638;37.670;2023-04-15T11:05:17;12.50;1.00
34201;DHT22;20469;55.638;37.670;2023-04-15T11:12:46;13.30;1.00
34201;DHT22;20469;55.638;37.670;2023-04-15T11:20:47;14.60;1.00
34201;DHT22;20469;55.638;37.670;2023-04-15T11:23:18;16.10;1.00
34201;DHT22;20469;55.638;37.670;2023-04-15T11:25:47;17.80;1.00
34201;DHT22;20469;55.638;37.670;2023-04-15T11:28:15;15.60;1.00
34201;DHT22;20469;55.638;37.670;2023-04-15T11:30:44;14.20;1.00
34201;DHT22;20469;55.638;37.670;2023-04-15T11:33:12;14.50;1.00
34201;DHT22;20469;55.638;37.670;2023-04-15T11:35:41;14.40;1.00
34201;DHT22;20469;55.638;37.670;2023-04-15T11:38:11;15.00;1.00
34201;DHT22;20469;55.638;37.670;2023-04-15T11:40:41;14.90;1.00
34201;DHT22;20469;55.638;37.670;2023-04-15T11:43:32;17.20;1.00
34201;DHT22;20469;55.638;37.670;2023-04-15T11:46:02;15.50;1.00
34201;DHT22;20469;55.638;37.670;2023-04-15T11:51:19;13.80;1.00
34201;DHT22;20469;55.638;37.670;2023-04-15T11:53:49;14.80;1.00
34201;DHT22;20469;55.638;37.670;2023-04-15T11:56:21;15.90;1.00
34201;DHT22;20469;55.638;37.670;2023-04-15T11:58:57;15.30;1.00
34201;DHT22;20469;55.638;37.670;2023-04-15T12:01:35;14.00;1.00
34201;DHT22;20469;55.638;37.670;2023-04-15T12:04:15;13.50;1.00
34201;DHT22;20469;55.638;37.670;2023-04-15T12:06:48;14.00;1.00
34201;DHT22;20469;55.638;37.670;2023-04-15T12:09:37;13.80;1.00
34201;DHT22;20469;55.638;37.670;2023-04-15T12:12:05;14.90;1.00
34201;DHT22;20469;55.638;37.670;2023-04-15T12:14:33;15.70;1.00
34201;DHT22;20469;55.638;37.670;2023-04-15T12:17:02;13.30;1.00
34201;DHT22;20469;55.638;37.670;2023-04-15T12:19:40;12.10;1.00
34201;DHT22;20469;55.638;37.670;2023-04-15T12:22:15;13.20;1.00
34201;DHT22;20469;55.638;37.670;2023-04-15T12:24:43;12.60;1.00
34201;DHT22;20469;55.638;37.670;2023-04-15T12:27:15;12.60;1.00
34201;DHT22;20469;55.638;37.670;2023-04-15T12:29:43;12.00;1.00
34201;DHT22;20469;55.638;37.670;2023-04-15T12:32:15;12.60;1.00
34201;DHT22;20469;55.638;37.670;2023-04-15T12:34:49;13.30;1.00
34201;DHT22;20469;55.638;37.670;2023-04-15T12:37:17;13.50;1.00
34201;DHT22;20469;55.638;37.670;2023-04-15T12:39:45;13.00;1.00
34201;DHT22;20469;55.638;37.670;2023-04-15T12:42:15;12.70;1.00
34201;DHT22;20469;55.638;37.670;2023-04-15T12:44:43;12.60;1.00
34201;DHT22;20469;55.638;37.670;2023-04-15T12:47:11;12.40;1.00
34201;DHT22;20469;55.638;37.670;2023-04-15T12:49:39;12.00;1.00
34201;DHT22;20469;55.638;37.670;2023-04-15T12:52:07;11.60;1.00
34201;DHT22;20469;55.638;37.670;2023-04-15T12:54:34;12.30;1.00
34201;DHT22;20469;55.638;37.670;2023-04-15T12:57:02;12.20;1.00
34201;DHT22;20469;55.638;37.670;2023-04-15T12:59:33;11.60;1.00
34201;DHT22;20469;55.638;37.670;2023-04-15T13:02:00;11.70;1.00
34201;DHT22;20469;55.638;37.670;2023-04-15T13:04:29;11.80;1.00
34201;DHT22;20469;55.638;37.670;2023-04-15T13:06:57;12.70;1.00
34201;DHT22;20469;55.638;37.670;2023-04-15T13:09:24;12.60;1.00
34201;DHT22;20469;55.638;37.670;2023-04-15T13:12:09;12.20;1.00
34201;DHT22;20469;55.638;37.670;2023-04-15T13:14:39;12.50;1.00
34201;DHT22;20469;55.638;37.670;2023-04-15T13:17:07;12.70;1.00
34201;DHT22;20469;55.638;37.670;2023-04-15T13:19:52;12.00;1.00
34201;DHT22;20469;55.638;37.670;2023-04-15T13:22:38;12.40;1.00
34201;DHT22;20469;55.638;37.670;2023-04-15T13:25:06;12.70;1.00
34201;DHT22;20469;55.638;37.670;2023-04-15T13:27:34;12.50;1.00
34201;DHT22;20469;55.638;37.670;2023-04-15T13:30:01;12.20;1.00
34201;DHT22;20469;55.638;37.670;2023-04-15T13:32:29;12.20;1.00
34201;DHT22;20469;55.638;37.670;2023-04-15T13:34:56;11.50;1.00
34201;DHT22;20469;55.638;37.670;2023-04-15T13:37:42;11.20;1.00
34201;DHT22;20469;55.638;37.670;2023-04-15T13:40:09;11.10;1.00
34201;DHT22;20469;55.638;37.670;2023-04-15T13:42:36;11.80;1.00
34201;DHT22;20469;55.638;37.670;2023-04-15T13:45:04;11.40;1.00
34201;DHT22;20469;55.638;37.670;2023-04-15T13:47:31;11.00;1.00
34201;DHT22;20469;55.638;37.670;2023-04-15T13:49:58;10.70;1.00
34201;DHT22;20469;55.638;37.670;2023-04-15T13:52:44;10.90;1.00
34201;DHT22;20469;55.638;37.670;2023-04-15T13:57:57;11.10;1.00
34201;DHT22;20469;55.638;37.670;2023-04-15T14:00:24;11.60;1.00
34201;DHT22;20469;55.638;37.670;2023-04-15T14:02:51;11.10;1.00
34201;DHT22;20469;55.638;37.670;2023-04-15T14:05:37;11.20;1.00
34201;DHT22;20469;55.638;37.670;2023-04-15T14:08:05;11.70;1.00
34201;DHT22;20469;55.638;37.670;2023-04-15T14:10:32;11.80;1.00
34201;DHT22;20469;55.638;37.670;2023-04-15T14:12:59;11.50;1.00
34201;DHT22;20469;55.638;37.670;2023-04-15T14:15:26;11.40;1.00
34201;DHT22;20469;55.638;37.670;2023-04-15T14:17:53;11.70;1.00
34201;DHT22;20469;55.638;37.670;2023-04-15T14:20:21;12.10;1.00
34201;DHT22;20469;55.638;37.670;2023-04-15T14:22:48;11.80;1.00
34201;DHT22;20469;55.638;37.670;2023-04-15T14:28:01;12.10;1.00
34201;DHT22;20469;55.638;37.670;2023-04-15T14:30:29;12.70;1.00
34201;DHT22;20469;55.638;37.670;2023-04-15T14:32:56;12.60;1.00
34201;DHT22;20469;55.638;37.670;2023-04-15T14:35:24;12.00;1.00
34201;DHT22;20469;55.638;37.670;2023-04-15T14:38:11;12.10;1.00
34201;DHT22;20469;55.638;37.670;2023-04-15T14:40:40;13.10;1.00
34201;DHT22;20469;55.638;37.670;2023-04-15T14:43:07;13.10;1.00
34201;DHT22;20469;55.638;37.670;2023-04-15T14:45:53;12.60;1.00
34201;DHT22;20469;55.638;37.670;2023-04-15T14:48:21;12.30;1.00
34201;DHT22;20469;55.638;37.670;2023-04-15T14:50:48;11.70;1.00
34201;DHT22;20469;55.638;37.670;2023-04-15T14:53:15;11.50;1.00
34201;DHT22;20469;55.638;37.670;2023-04-15T14:55:42;11.80;1.00
34201;DHT22;20469;55.638;37.670;2023-04-15T14:58:28;12.20;1.00
34201;DHT22;20469;55.638;37.670;2023-04-15T15:00:55;11.50;1.00
34201;DHT22;20469;55.638;37.670;2023-04-15T15:03:22;11.60;1.00
34201;DHT22;20469;55.638;37.670;2023-04-15T15:05:49;11.90;1.00
34201;DHT22;20469;55.638;37.670;2023-04-15T15:08:17;12.00;1.00
34201;DHT22;20469;55.638;37.670;2023-04-15T15:10:44;11.00;1.00
34201;DHT22;20469;55.638;37.670;2023-04-15T15:13:16;10.80;1.00
34201;DHT22;20469;55.638;37.670;2023-04-15T15:15:44;10.90;1.00
34201;DHT22;20469;55.638;37.670;2023-04-15T15:18:11;10.50;1.00
34201;DHT22;20469;55.638;37.670;2023-04-15T15:20:39;10.20;1.00
34201;DHT22;20469;55.638;37.670;2023-04-15T15:23:06;10.00;1.00
34201;DHT22;20469;55.638;37.670;2023-04-15T15:25:33;9.90;1.00
34201;DHT22;20469;55.638;37.670;2023-04-15T15:28:00;9.90;1.00
34201;DHT22;20469;55.638;37.670;2023-04-15T15:30:27;9.90;1.00
34201;DHT22;20469;55.638;37.670;2023-04-15T15:32:54;9.80;1.00
34201;DHT22;20469;55.638;37.670;2023-04-15T15:35:21;9.70;1.00
34201;DHT22;20469;55.638;37.670;2023-04-15T15:37:49;9.70;1.00
34201;DHT22;20469;55.638;37.670;2023-04-15T15:40:16;9.70;1.00
34201;DHT22;20469;55.638;37.670;2023-04-15T15:42:44;9.60;1.00
34201;DHT22;20469;55.638;37.670;2023-04-15T15:45:12;9.60;1.00
34201;DHT22;20469;55.638;37.670;2023-04-15T15:47:40;9.60;1.00
34201;DHT22;20469;55.638;37.670;2023-04-15T15:50:07;9.60;1.00
34201;DHT22;20469;55.638;37.670;2023-04-15T15:52:34;9.60;1.00
34201;DHT22;20469;55.638;37.670;2023-04-15T15:55:01;9.50;1.00
34201;DHT22;20469;55.638;37.670;2023-04-15T15:57:29;9.50;1.00
34201;DHT22;20469;55.638;37.670;2023-04-15T15:59:56;9.50;1.00
34201;DHT22;20469;55.638;37.670;2023-04-15T16:02:37;9.40;1.00
34201;DHT22;20469;55.638;37.670;2023-04-15T16:05:14;9.50;1.00
34201;DHT22;20469;55.638;37.670;2023-04-15T16:07:41;9.40;1.00
34201;DHT22;20469;55.638;37.670;2023-04-15T16:10:09;9.40;1.00
34201;DHT22;20469;55.638;37.670;2023-04-15T16:12:36;9.30;1.00
34201;DHT22;20469;55.638;37.670;2023-04-15T16:15:04;9.20;1.00
34201;DHT22;20469;55.638;37.670;2023-04-15T16:17:31;9.20;1.00
34201;DHT22;20469;55.638;37.670;2023-04-15T16:19:58;9.20;1.00